Time;durP1;ratioP1;P1;durP2;ratioP2;P2;SDS_P1;SDS_P2;PMS_P1;PMS_P2;Temp;Humidity;BMP_temperature;BMP_pressure;BME280_temperature;BME280_humidity;BME280_pressure;Samples;Min_cycle;Max_cycle;Signal;HPM_P1;HPM_P2
2023/01/06 00:01:15;;;;;;;15.07;5.05;;;;;;;;;;5009013;28;20040;-78
2023/01/06 00:03:41;;;;;;;13.43;4.10;;;;;;;;;;5013385;28;20026;-79
2023/01/06 00:06:09;;;;;;;15.02;4.47;;;;;;;;;;5013856;28;20044;-77
2023/01/06 00:08:35;;;;;;;12.75;3.60;;;;;;;;;;5014159;28;20199;-77
2023/01/06 00:11:11;;;;;;;10.43;4.78;;;;;;;;;;5009661;28;20132;-77
2023/01/06 00:13:37;;;;;;;7.93;4.28;;;;;;;;;;5009614;28;20034;-77
2023/01/06 00:16:08;;;;;;;15.88;4.40;;;;;;;;;;5009137;28;20406;-77
2023/01/06 00:18:34;;;;;;;11.93;4.90;;;;;;;;;;5009231;28;20041;-77
2023/01/06 00:21:00;;;;;;;13.52;4.75;;;;;;;;;;5010343;28;20034;-76
2023/01/06 00:23:26;;;;;;;11.60;4.82;;;;;;;;;;5010241;28;20104;-77
2023/01/06 00:25:51;;;;;;;12.55;4.65;;;;;;;;;;5008690;28;20133;-77
2023/01/06 00:28:17;;;;;;;18.65;5.72;;;;;;;;;;5008833;28;20055;-78
2023/01/06 00:30:43;;;;;;;11.03;4.03;;;;;;;;;;5008641;28;20034;-78
2023/01/06 00:33:08;;;;;;;14.15;4.40;;;;;;;;;;5008927;28;20109;-77
2023/01/06 00:35:34;;;;;;;22.13;4.32;;;;;;;;;;5008977;28;20021;-77
2023/01/06 00:37:59;;;;;;;12.75;4.47;;;;;;;;;;5018460;28;20028;-77
2023/01/06 00:40:25;;;;;;;8.77;3.78;;;;;;;;;;5028081;28;20044;-78
2023/01/06 00:42:50;;;;;;;10.43;3.70;;;;;;;;;;5028109;28;20150;-77
2023/01/06 00:45:16;;;;;;;12.15;4.45;;;;;;;;;;5028194;28;20118;-77
2023/01/06 00:47:41;;;;;;;10.32;3.63;;;;;;;;;;5028197;28;20037;-78
2023/01/06 00:50:08;;;;;;;11.00;3.78;;;;;;;;;;5028042;28;20033;-76
2023/01/06 00:52:33;;;;;;;6.75;3.15;;;;;;;;;;5028146;28;20037;-77
2023/01/06 00:54:59;;;;;;;11.25;4.28;;;;;;;;;;5028341;28;20029;-77
2023/01/06 00:57:25;;;;;;;13.32;3.88;;;;;;;;;;5028103;28;20393;-78
2023/01/06 00:59:50;;;;;;;10.45;4.40;;;;;;;;;;5028325;28;20034;-78
2023/01/06 01:02:16;;;;;;;8.50;3.78;;;;;;;;;;5028348;28;20040;-78
2023/01/06 01:04:41;;;;;;;11.35;4.13;;;;;;;;;;5028401;28;20040;-76
2023/01/06 01:07:07;;;;;;;10.25;3.67;;;;;;;;;;5028171;28;20040;-77
2023/01/06 01:09:32;;;;;;;15.53;4.20;;;;;;;;;;5029665;28;20038;-77
2023/01/06 01:12:11;;;;;;;9.38;4.18;;;;;;;;;;5029942;28;20504;-76
2023/01/06 01:14:48;;;;;;;14.98;4.28;;;;;;;;;;5028268;28;20065;-77
2023/01/06 01:17:40;;;;;;;7.20;3.33;;;;;;;;;;5027863;28;20029;-77
2023/01/06 01:20:07;;;;;;;11.65;4.25;;;;;;;;;;5027124;28;20227;-76
2023/01/06 01:22:32;;;;;;;14.83;4.70;;;;;;;;;;5027820;28;20033;-78
2023/01/06 01:24:58;;;;;;;14.73;5.07;;;;;;;;;;5027874;28;20405;-76
2023/01/06 01:27:23;;;;;;;14.47;4.10;;;;;;;;;;5029233;28;20026;-77
2023/01/06 01:29:49;;;;;;;12.53;3.70;;;;;;;;;;5029180;28;20029;-77
2023/01/06 01:32:14;;;;;;;9.87;3.47;;;;;;;;;;5027574;28;20028;-77
2023/01/06 01:34:40;;;;;;;13.73;3.70;;;;;;;;;;5027636;28;20056;-77
2023/01/06 01:37:05;;;;;;;11.27;3.87;;;;;;;;;;5024688;28;20067;-76
2023/01/06 01:39:31;;;;;;;10.77;3.70;;;;;;;;;;5008031;28;20109;-77
2023/01/06 01:41:57;;;;;;;16.87;4.20;;;;;;;;;;5009247;28;20072;-77
2023/01/06 01:44:53;;;;;;;9.83;3.63;;;;;;;;;;5007695;28;20065;-76
2023/01/06 01:47:56;;;;;;;14.00;4.33;;;;;;;;;;5007626;28;20025;-78
2023/01/06 01:50:27;;;;;;;12.13;2.93;;;;;;;;;;4967533;28;20093;-77
2023/01/06 01:53:05;;;;;;;11.80;3.60;;;;;;;;;;4998139;28;20046;-77
2023/01/06 01:55:33;;;;;;;15.27;4.57;;;;;;;;;;5008075;28;20120;-79
2023/01/06 01:58:07;;;;;;;11.73;3.50;;;;;;;;;;4995230;28;20026;-77
2023/01/06 02:00:34;;;;;;;9.80;3.00;;;;;;;;;;5011599;28;20030;-77
2023/01/06 02:03:00;;;;;;;10.00;3.67;;;;;;;;;;5011686;28;20120;-77
2023/01/06 02:05:28;;;;;;;11.07;3.60;;;;;;;;;;5011814;28;20041;-77
2023/01/06 02:07:59;;;;;;;12.27;3.83;;;;;;;;;;5013560;28;20034;-77
2023/01/06 02:10:24;;;;;;;8.60;3.13;;;;;;;;;;5011401;28;20071;-76
2023/01/06 02:12:55;;;;;;;11.93;3.30;;;;;;;;;;5011580;28;20033;-77
2023/01/06 02:15:26;;;;;;;13.63;3.07;;;;;;;;;;5012799;28;20026;-76
2023/01/06 02:18:06;;;;;;;21.27;4.30;;;;;;;;;;5011233;28;20037;-77
2023/01/06 02:21:09;;;;;;;11.33;3.23;;;;;;;;;;5011552;28;20029;-77
2023/01/06 02:23:56;;;;;;;11.70;3.35;;;;;;;;;;5012879;28;20034;-78
2023/01/06 02:26:27;;;;;;;14.15;2.88;;;;;;;;;;5012643;28;20521;-77
2023/01/06 02:29:30;;;;;;;14.38;3.53;;;;;;;;;;5011385;28;20060;-77
2023/01/06 02:31:58;;;;;;;13.23;3.30;;;;;;;;;;5011071;28;20038;-77
2023/01/06 02:34:46;;;;;;;15.00;3.50;;;;;;;;;;5010781;28;20628;-76
2023/01/06 02:37:36;;;;;;;10.37;3.40;;;;;;;;;;5014020;28;20021;-77
2023/01/06 02:40:19;;;;;;;10.10;3.33;;;;;;;;;;5031037;28;20025;-77
2023/01/06 02:42:51;;;;;;;13.40;3.83;;;;;;;;;;5032359;28;20053;-77
2023/01/06 02:45:27;;;;;;;17.45;3.70;;;;;;;;;;5030801;28;20102;-77
2023/01/06 02:48:14;;;;;;;16.95;3.83;;;;;;;;;;5030815;28;20090;-78
2023/01/06 02:51:02;;;;;;;15.15;3.78;;;;;;;;;;5032119;28;20021;-77
2023/01/06 02:53:31;;;;;;;14.82;4.13;;;;;;;;;;5031961;28;20030;-78
2023/01/06 02:55:57;;;;;;;10.93;3.38;;;;;;;;;;5030961;28;20558;-76
2023/01/06 02:58:32;;;;;;;11.20;3.38;;;;;;;;;;5030209;28;20113;-77
2023/01/06 03:01:10;;;;;;;16.75;4.00;;;;;;;;;;5029660;28;20637;-78
2023/01/06 03:03:40;;;;;;;14.43;4.00;;;;;;;;;;5031220;28;20026;-76
2023/01/06 03:06:10;;;;;;;8.75;3.42;;;;;;;;;;5030169;28;20046;-76
2023/01/06 03:08:37;;;;;;;8.50;2.90;;;;;;;;;;5030323;28;20017;-76
2023/01/06 03:11:03;;;;;;;13.20;3.78;;;;;;;;;;5029933;28;20060;-77
2023/01/06 03:13:38;;;;;;;18.07;3.77;;;;;;;;;;5030075;28;20029;-77
2023/01/06 03:16:04;;;;;;;17.80;3.83;;;;;;;;;;5032802;28;20053;-77
2023/01/06 03:18:31;;;;;;;12.43;4.18;;;;;;;;;;5032117;28;20044;-77
2023/01/06 03:21:01;;;;;;;15.20;3.80;;;;;;;;;;5029784;28;20036;-77
2023/01/06 03:23:26;;;;;;;14.13;3.58;;;;;;;;;;5013440;28;20067;-77
2023/01/06 03:25:52;;;;;;;13.50;3.47;;;;;;;;;;5030840;28;20021;-77
2023/01/06 03:28:18;;;;;;;9.10;3.47;;;;;;;;;;5030953;28;20424;-76
2023/01/06 03:31:06;;;;;;;15.68;3.75;;;;;;;;;;5029679;28;20026;-77
2023/01/06 03:33:50;;;;;;;15.27;4.07;;;;;;;;;;5030959;28;20079;-77
2023/01/06 03:36:15;;;;;;;11.83;4.33;;;;;;;;;;5029703;28;20454;-77
2023/01/06 03:39:17;;;;;;;14.38;3.97;;;;;;;;;;5029744;28;20036;-76
2023/01/06 03:45:19;;;;;;;10.55;3.28;;;;;;;;;;5013034;28;20118;-77
2023/01/06 03:47:47;;;;;;;15.70;4.35;;;;;;;;;;5029529;28;20112;-76
2023/01/06 03:50:38;;;;;;;10.63;3.95;;;;;;;;;;5029928;28;20029;-78
2023/01/06 03:53:35;;;;;;;12.68;4.03;;;;;;;;;;5030118;28;20442;-78
2023/01/06 03:56:06;;;;;;;13.77;3.13;;;;;;;;;;5032728;28;20037;-77
2023/01/06 03:58:33;;;;;;;15.05;3.85;;;;;;;;;;5031428;28;20061;-78
2023/01/06 04:00:59;;;;;;;9.93;3.63;;;;;;;;;;5029570;28;20026;-77
2023/01/06 04:03:28;;;;;;;9.15;3.60;;;;;;;;;;5030497;28;20351;-76
2023/01/06 04:05:54;;;;;;;11.27;3.63;;;;;;;;;;5029483;28;20029;-78
2023/01/06 04:08:20;;;;;;;15.80;3.80;;;;;;;;;;5029184;28;20139;-76
2023/01/06 04:10:45;;;;;;;17.30;4.30;;;;;;;;;;5028868;28;20451;-77
2023/01/06 04:13:11;;;;;;;15.23;3.40;;;;;;;;;;5029186;28;20109;-77
2023/01/06 04:15:36;;;;;;;14.40;4.03;;;;;;;;;;5030410;28;20021;-77
2023/01/06 04:18:01;;;;;;;9.20;3.40;;;;;;;;;;5030385;28;20118;-78
2023/01/06 04:20:29;;;;;;;14.38;3.75;;;;;;;;;;5029625;28;20124;-78
2023/01/06 04:22:56;;;;;;;7.95;3.30;;;;;;;;;;5028845;28;20022;-78
2023/01/06 04:25:22;;;;;;;7.95;3.53;;;;;;;;;;5028517;28;20429;-78
2023/01/06 04:27:47;;;;;;;20.58;3.85;;;;;;;;;;5028702;28;20033;-77
2023/01/06 04:30:13;;;;;;;11.63;3.58;;;;;;;;;;5029866;28;20026;-76
2023/01/06 04:32:39;;;;;;;14.68;4.35;;;;;;;;;;5028712;28;20044;-77
2023/01/06 04:35:05;;;;;;;12.13;3.85;;;;;;;;;;5030181;28;20024;-77
2023/01/06 04:37:30;;;;;;;13.50;3.42;;;;;;;;;;5024196;28;20045;-77
2023/01/06 04:39:56;;;;;;;13.52;3.22;;;;;;;;;;5009120;28;20103;-76
2023/01/06 04:42:21;;;;;;;14.13;4.00;;;;;;;;;;5009725;28;20049;-77
2023/01/06 04:44:47;;;;;;;12.75;3.70;;;;;;;;;;5008454;28;20033;-78
2023/01/06 04:47:12;;;;;;;22.35;4.00;;;;;;;;;;5009808;28;20037;-76
2023/01/06 04:49:38;;;;;;;10.75;3.80;;;;;;;;;;5009740;28;20427;-77
2023/01/06 04:52:04;;;;;;;12.50;3.35;;;;;;;;;;5010068;28;20485;-77
2023/01/06 04:54:29;;;;;;;19.67;4.25;;;;;;;;;;5008164;28;20061;-77
2023/01/06 04:56:55;;;;;;;24.70;4.55;;;;;;;;;;5009865;28;20106;-76
2023/01/06 04:59:21;;;;;;;14.70;3.35;;;;;;;;;;5008205;28;20069;-78
2023/01/06 05:01:46;;;;;;;15.73;4.15;;;;;;;;;;5009082;28;20053;-79
2023/01/06 05:04:12;;;;;;;17.63;3.63;;;;;;;;;;5008508;28;20033;-77
2023/01/06 05:06:38;;;;;;;15.82;3.53;;;;;;;;;;5008415;28;20260;-77
2023/01/06 05:09:06;;;;;;;9.88;3.78;;;;;;;;;;5008216;28;20566;-76
2023/01/06 05:11:32;;;;;;;13.77;2.92;;;;;;;;;;5008096;28;20041;-78
2023/01/06 05:13:58;;;;;;;11.82;3.90;;;;;;;;;;5008284;28;20033;-77
2023/01/06 05:16:26;;;;;;;12.85;2.92;;;;;;;;;;5008604;28;20030;-77
2023/01/06 05:18:52;;;;;;;15.60;4.30;;;;;;;;;;5008661;28;20026;-76
2023/01/06 05:21:17;;;;;;;19.42;3.92;;;;;;;;;;5008102;28;20042;-77
2023/01/06 05:23:43;;;;;;;10.45;3.20;;;;;;;;;;5009759;28;20054;-77
2023/01/06 05:26:15;;;;;;;7.70;3.63;;;;;;;;;;5008297;28;20163;-77
2023/01/06 05:28:40;;;;;;;;;;;;;;;;;;5008832;28;20030;-77
2023/01/06 05:31:08;;;;;;;7.93;2.75;;;;;;;;;;5008615;28;19925;-77
2023/01/06 05:33:33;;;;;;;14.07;3.90;;;;;;;;;;5013488;28;20065;-77
2023/01/06 05:36:04;;;;;;;12.63;3.05;;;;;;;;;;5011979;28;20058;-77
2023/01/06 05:38:30;;;;;;;11.50;4.63;;;;;;;;;;5026907;28;20025;-77
2023/01/06 05:40:56;;;;;;;14.25;3.97;;;;;;;;;;5031609;28;20281;-77
2023/01/06 05:43:22;;;;;;;9.02;3.03;;;;;;;;;;5031492;28;20025;-77
2023/01/06 05:45:48;;;;;;;17.23;3.72;;;;;;;;;;5031923;28;20025;-77
2023/01/06 05:48:14;;;;;;;13.27;3.95;;;;;;;;;;5033156;28;20386;-78
2023/01/06 05:50:40;;;;;;;11.50;3.55;;;;;;;;;;5032502;28;20454;-77
2023/01/06 05:53:06;;;;;;;14.90;4.38;;;;;;;;;;5031301;28;20037;-78
2023/01/06 05:55:31;;;;;;;18.08;4.60;;;;;;;;;;5031305;28;20032;-78
2023/01/06 05:57:57;;;;;;;10.55;4.05;;;;;;;;;;5026691;28;20022;-77
2023/01/06 06:00:23;;;;;;;18.40;4.28;;;;;;;;;;5024980;28;20870;-78
2023/01/06 06:02:48;;;;;;;8.73;3.67;;;;;;;;;;5022873;28;20390;-78
2023/01/06 06:05:14;;;;;;;7.93;3.80;;;;;;;;;;5011782;28;20068;-77
2023/01/06 06:07:39;;;;;;;12.75;4.03;;;;;;;;;;5021909;28;20068;-77
2023/01/06 06:10:05;;;;;;;8.75;3.58;;;;;;;;;;5031317;28;20053;-77
2023/01/06 06:12:32;;;;;;;15.85;3.88;;;;;;;;;;5032811;28;20090;-77
2023/01/06 06:14:57;;;;;;;14.88;5.70;;;;;;;;;;5027825;28;20029;-78
2023/01/06 06:17:24;;;;;;;10.73;3.92;;;;;;;;;;5021737;28;20331;-74
2023/01/06 06:19:50;;;;;;;8.43;3.67;;;;;;;;;;5021223;28;20018;-75
2023/01/06 06:22:16;;;;;;;13.85;3.95;;;;;;;;;;5016719;28;20032;-76
2023/01/06 06:24:42;;;;;;;13.68;3.20;;;;;;;;;;5017215;28;20034;-74
2023/01/06 06:27:10;;;;;;;14.65;4.03;;;;;;;;;;5032015;28;20034;-76
2023/01/06 06:29:42;;;;;;;17.77;5.50;;;;;;;;;;5019110;28;20069;-80
2023/01/06 06:32:08;;;;;;;17.17;5.35;;;;;;;;;;5029208;28;20139;-78
2023/01/06 06:34:34;;;;;;;12.85;4.28;;;;;;;;;;5031182;28;20346;-76
2023/01/06 06:37:00;;;;;;;14.55;5.70;;;;;;;;;;5029066;28;20052;-73
2023/01/06 06:39:29;;;;;;;12.82;4.03;;;;;;;;;;5025786;28;20104;-80
2023/01/06 06:41:55;;;;;;;11.68;3.58;;;;;;;;;;5011873;28;20057;-74
2023/01/06 06:44:21;;;;;;;14.90;3.97;;;;;;;;;;5026659;28;20059;-73
2023/01/06 06:46:48;;;;;;;16.60;4.00;;;;;;;;;;5031596;28;20421;-80
2023/01/06 06:49:14;;;;;;;14.48;3.90;;;;;;;;;;5029765;28;20426;-72
2023/01/06 06:51:39;;;;;;;12.50;3.88;;;;;;;;;;5025745;28;20029;-73
2023/01/06 06:54:07;;;;;;;15.43;3.77;;;;;;;;;;5027691;28;20480;-76
2023/01/06 06:56:33;;;;;;;23.75;5.50;;;;;;;;;;5014234;28;20083;-77
2023/01/06 06:59:01;;;;;;;12.55;4.35;;;;;;;;;;5028645;28;20041;-77
2023/01/06 07:01:27;;;;;;;30.02;10.10;;;;;;;;;;5029787;28;20441;-77
2023/01/06 07:03:56;;;;;;;12.07;4.57;;;;;;;;;;5027736;28;20159;-79
2023/01/06 07:06:24;;;;;;;13.07;4.50;;;;;;;;;;5029463;28;20027;-78
2023/01/06 07:08:50;;;;;;;14.82;4.20;;;;;;;;;;5025977;28;20025;-80
2023/01/06 07:11:16;;;;;;;16.90;4.55;;;;;;;;;;5025600;28;20033;-75
2023/01/06 07:13:46;;;;;;;13.70;4.47;;;;;;;;;;5026086;28;20057;-75
2023/01/06 07:16:12;;;;;;;19.58;6.05;;;;;;;;;;5029358;28;20500;-75
2023/01/06 07:18:39;;;;;;;16.33;4.13;;;;;;;;;;5028707;28;20021;-77
2023/01/06 07:21:05;;;;;;;16.90;4.93;;;;;;;;;;5027130;28;20025;-75
2023/01/06 07:23:31;;;;;;;16.90;5.10;;;;;;;;;;5028173;28;20048;-75
2023/01/06 07:26:00;;;;;;;15.30;4.38;;;;;;;;;;5025607;28;20022;-76
2023/01/06 07:28:30;;;;;;;21.52;6.13;;;;;;;;;;5029125;28;20052;-82
2023/01/06 07:30:59;;;;;;;19.88;4.10;;;;;;;;;;5026525;28;20040;-77
2023/01/06 07:33:25;;;;;;;11.95;4.25;;;;;;;;;;5023201;28;20036;-82
2023/01/06 07:35:53;;;;;;;14.95;4.25;;;;;;;;;;5016486;28;20033;-78
2023/01/06 07:38:19;;;;;;;9.70;4.35;;;;;;;;;;5025758;28;20029;-82
2023/01/06 07:40:45;;;;;;;16.15;4.90;;;;;;;;;;5030459;28;20105;-79
2023/01/06 07:43:11;;;;;;;11.18;5.18;;;;;;;;;;5028975;28;20039;-82
2023/01/06 07:45:37;;;;;;;13.52;5.20;;;;;;;;;;5026724;28;20091;-77
2023/01/06 07:48:04;;;;;;;16.27;3.95;;;;;;;;;;5022566;28;20029;-77
2023/01/06 07:50:31;;;;;;;20.65;6.13;;;;;;;;;;5025989;28;20120;-76
2023/01/06 07:52:59;;;;;;;11.20;4.18;;;;;;;;;;5022222;28;20044;-76
2023/01/06 07:55:25;;;;;;;16.48;4.10;;;;;;;;;;5028006;28;20104;-77
2023/01/06 07:57:53;;;;;;;14.55;4.32;;;;;;;;;;5023630;28;20041;-79
2023/01/06 08:00:22;;;;;;;21.88;4.20;;;;;;;;;;5019092;28;20037;-76
2023/01/06 08:02:48;;;;;;;12.77;4.63;;;;;;;;;;5011126;28;20453;-83
2023/01/06 08:05:14;;;;;;;13.38;5.07;;;;;;;;;;5022154;28;20375;-81
2023/01/06 08:07:40;;;;;;;22.70;5.78;;;;;;;;;;5023195;28;20017;-76
2023/01/06 08:10:07;;;;;;;23.02;6.95;;;;;;;;;;5026820;28;20026;-84
2023/01/06 08:12:33;;;;;;;36.10;8.43;;;;;;;;;;5006338;28;20030;-77
2023/01/06 08:15:00;;;;;;;26.13;7.78;;;;;;;;;;5025356;28;20028;-81
2023/01/06 08:17:29;;;;;;;18.83;6.00;;;;;;;;;;5025031;28;20026;-78
2023/01/06 08:19:55;;;;;;;18.30;5.65;;;;;;;;;;5024973;28;20022;-79
2023/01/06 08:22:21;;;;;;;16.95;4.38;;;;;;;;;;5023648;28;20064;-79
2023/01/06 08:24:47;;;;;;;13.93;5.28;;;;;;;;;;5025380;28;20044;-78
2023/01/06 08:27:13;;;;;;;18.27;6.38;;;;;;;;;;5022916;28;20029;-79
2023/01/06 08:29:39;;;;;;;13.57;4.88;;;;;;;;;;5025397;28;20148;-81
2023/01/06 08:32:05;;;;;;;14.65;5.40;;;;;;;;;;5017202;28;20065;-75
2023/01/06 08:34:31;;;;;;;20.80;8.65;;;;;;;;;;5021120;28;20087;-78
2023/01/06 08:36:57;;;;;;;10.50;4.63;;;;;;;;;;5025541;28;20064;-78
2023/01/06 08:39:23;;;;;;;10.95;4.10;;;;;;;;;;5023171;28;20025;-76
2023/01/06 08:41:50;;;;;;;12.23;4.30;;;;;;;;;;5020048;28;20098;-78
2023/01/06 08:44:17;;;;;;;10.25;4.90;;;;;;;;;;5019880;28;20049;-79
2023/01/06 08:46:43;;;;;;;12.25;3.97;;;;;;;;;;5026249;28;20025;-78
2023/01/06 08:49:09;;;;;;;13.65;4.95;;;;;;;;;;5024062;28;20025;-82
2023/01/06 08:51:35;;;;;;;11.55;3.97;;;;;;;;;;5022271;28;20033;-80
2023/01/06 08:54:04;;;;;;;18.90;11.75;;;;;;;;;;5014339;28;20044;-79
2023/01/06 08:56:31;;;;;;;16.02;7.57;;;;;;;;;;5017177;28;20036;-78
2023/01/06 08:59:01;;;;;;;11.73;4.80;;;;;;;;;;5005645;28;20025;-78
2023/01/06 09:01:30;;;;;;;11.10;3.42;;;;;;;;;;5019892;28;20034;-80
2023/01/06 09:04:05;;;;;;;12.52;4.45;;;;;;;;;;5032497;28;20067;-81
2023/01/06 09:06:35;;;;;;;17.42;5.45;;;;;;;;;;5031224;28;20032;-80
2023/01/06 09:09:04;;;;;;;12.68;4.47;;;;;;;;;;5016569;28;20113;-79
2023/01/06 09:11:30;;;;;;;16.55;4.68;;;;;;;;;;5024418;28;20023;-79
2023/01/06 09:13:56;;;;;;;13.98;4.00;;;;;;;;;;5023274;28;20109;-79
2023/01/06 09:16:22;;;;;;;18.77;6.60;;;;;;;;;;5026019;28;20022;-81
2023/01/06 09:18:50;;;;;;;20.23;7.38;;;;;;;;;;5027965;28;20044;-79
2023/01/06 09:21:19;;;;;;;17.08;5.75;;;;;;;;;;5026098;28;20044;-80
2023/01/06 09:23:45;;;;;;;9.85;4.63;;;;;;;;;;5021514;28;20052;-79
2023/01/06 09:26:16;;;;;;;7.15;4.10;;;;;;;;;;5025253;28;20057;-83
2023/01/06 09:28:46;;;;;;;14.60;4.18;;;;;;;;;;5027131;28;20300;-89
2023/01/06 09:31:12;;;;;;;12.77;4.97;;;;;;;;;;5026870;28;20060;-77
2023/01/06 09:33:38;;;;;;;15.43;6.35;;;;;;;;;;5020984;28;20057;-78
2023/01/06 09:36:05;;;;;;;9.70;3.70;;;;;;;;;;5023629;28;20037;-79
2023/01/06 09:38:31;;;;;;;11.32;4.85;;;;;;;;;;5026518;28;20053;-80
2023/01/06 09:41:30;;;;;;;13.23;4.70;;;;;;;;;;5024773;28;20135;-79
2023/01/06 09:44:32;;;;;;;7.03;3.45;;;;;;;;;;5022475;28;20025;-79
2023/01/06 09:47:02;;;;;;;8.27;3.72;;;;;;;;;;5014197;28;20041;-83
2023/01/06 09:49:58;;;;;;;5.93;3.35;;;;;;;;;;5025757;28;20463;-83
2023/01/06 09:52:45;;;;;;;16.92;4.07;;;;;;;;;;5019418;28;20042;-81
2023/01/06 09:55:29;;;;;;;7.95;4.90;;;;;;;;;;5026541;28;20467;-85
2023/01/06 09:57:59;;;;;;;10.68;4.22;;;;;;;;;;5024035;28;20038;-83
2023/01/06 10:00:53;;;;;;;6.18;2.97;;;;;;;;;;5019589;28;20099;-83
2023/01/06 10:03:25;;;;;;;8.10;3.38;;;;;;;;;;5019506;28;20410;-83
2023/01/06 10:05:56;;;;;;;5.40;2.92;;;;;;;;;;5027076;28;20052;-83
2023/01/06 10:08:57;;;;;;;6.55;2.78;;;;;;;;;;5024497;28;20164;-83
2023/01/06 10:11:48;;;;;;;4.90;2.42;;;;;;;;;;5022653;28;20117;-82
2023/01/06 10:14:49;;;;;;;3.67;2.60;;;;;;;;;;5025086;28;20433;-82
2023/01/06 10:17:27;;;;;;;4.32;2.63;;;;;;;;;;5018621;28;20053;-83
2023/01/06 10:20:21;;;;;;;3.92;2.28;;;;;;;;;;5027025;28;20073;-82
2023/01/06 10:22:59;;;;;;;5.22;2.33;;;;;;;;;;5025096;28;20106;-81
2023/01/06 10:25:43;;;;;;;4.32;2.20;;;;;;;;;;5027815;28;20052;-85
2023/01/06 10:28:28;;;;;;;7.78;2.85;;;;;;;;;;5031802;28;20033;-83
2023/01/06 10:31:06;;;;;;;4.88;2.50;;;;;;;;;;5021390;28;20446;-83
2023/01/06 10:33:45;;;;;;;18.77;5.43;;;;;;;;;;5024003;28;20025;-84
2023/01/06 10:36:13;;;;;;;7.15;1.95;;;;;;;;;;5026202;28;20049;-84
2023/01/06 10:38:47;;;;;;;6.07;2.22;;;;;;;;;;5028560;28;20044;-82
2023/01/06 10:41:32;;;;;;;3.38;2.20;;;;;;;;;;5026037;28;20053;-85
2023/01/06 10:43:59;;;;;;;4.45;2.38;;;;;;;;;;5033178;28;20100;-82
2023/01/06 10:46:33;;;;;;;5.68;2.72;;;;;;;;;;5037725;28;20033;-82
2023/01/06 10:49:04;;;;;;;6.32;2.90;;;;;;;;;;5033124;28;20033;-85
2023/01/06 10:51:47;;;;;;;7.13;2.70;;;;;;;;;;5031541;28;20053;-81
2023/01/06 10:54:35;;;;;;;6.72;3.20;;;;;;;;;;5030218;28;20033;-84
2023/01/06 10:57:10;;;;;;;6.15;2.70;;;;;;;;;;5037073;28;20025;-81
2023/01/06 11:00:13;;;;;;;7.57;2.65;;;;;;;;;;5027219;28;20509;-78
2023/01/06 11:02:47;;;;;;;7.35;3.60;;;;;;;;;;5027953;28;20028;-82
2023/01/06 11:05:18;;;;;;;5.95;2.42;;;;;;;;;;5031430;28;20117;-79
2023/01/06 11:07:56;;;;;;;2.70;2.50;;;;;;;;;;5021454;28;20033;-80
2023/01/06 11:10:37;;;;;;;5.38;2.45;;;;;;;;;;5030557;28;20294;-80
2023/01/06 11:13:06;;;;;;;4.47;2.65;;;;;;;;;;5025908;28;20089;-80
2023/01/06 11:15:40;;;;;;;6.28;3.58;;;;;;;;;;5034568;28;20365;-78
2023/01/06 11:18:28;;;;;;;4.40;2.67;;;;;;;;;;5034261;28;20481;-82
2023/01/06 11:21:05;;;;;;;4.18;2.40;;;;;;;;;;5040022;28;20025;-82
2023/01/06 11:23:31;;;;;;;8.10;2.97;;;;;;;;;;5035474;28;20041;-81
2023/01/06 11:26:11;;;;;;;20.73;4.40;;;;;;;;;;5027960;28;20026;-82
2023/01/06 11:28:39;;;;;;;6.07;3.50;;;;;;;;;;5026173;28;20095;-81
2023/01/06 11:31:15;;;;;;;11.60;4.05;;;;;;;;;;5025700;28;20044;-78
2023/01/06 11:33:50;;;;;;;5.38;2.60;;;;;;;;;;5029733;28;20171;-79
2023/01/06 11:36:18;;;;;;;4.50;2.65;;;;;;;;;;5032728;28;20060;-80
2023/01/06 11:38:59;;;;;;;5.68;3.40;;;;;;;;;;5029735;28;20090;-83
2023/01/06 11:41:32;;;;;;;6.53;2.58;;;;;;;;;;5034509;28;20101;-82
2023/01/06 11:44:34;;;;;;;4.28;2.92;;;;;;;;;;5029684;28;20051;-82
2023/01/06 11:47:10;;;;;;;7.43;2.47;;;;;;;;;;5012464;28;20435;-80
2023/01/06 11:49:50;;;;;;;5.78;2.38;;;;;;;;;;5029532;28;20123;-83
2023/01/06 11:52:25;;;;;;;11.38;3.78;;;;;;;;;;5026267;28;20138;-82
2023/01/06 11:55:18;;;;;;;3.17;1.95;;;;;;;;;;5028284;28;20053;-83
2023/01/06 11:58:12;;;;;;;3.45;2.03;;;;;;;;;;5024574;28;20029;-81
2023/01/06 12:01:03;;;;;;;5.47;2.30;;;;;;;;;;5026813;28;20048;-80
2023/01/06 12:03:43;;;;;;;8.47;2.20;;;;;;;;;;5023154;28;20029;-81
2023/01/06 12:06:30;;;;;;;3.13;1.88;;;;;;;;;;5027897;28;20034;-84
2023/01/06 12:09:04;;;;;;;2.78;1.63;;;;;;;;;;5021982;28;20704;-81
2023/01/06 12:11:43;;;;;;;2.92;1.58;;;;;;;;;;5019136;28;20474;-80
2023/01/06 12:14:16;;;;;;;6.28;2.30;;;;;;;;;;5022277;28;20039;-81
2023/01/06 12:17:37;;;;;;;2.80;1.48;;;;;;;;;;4999578;28;20509;-80
2023/01/06 12:20:40;;;;;;;2.75;1.10;;;;;;;;;;4975924;28;20109;-80
2023/01/06 12:23:24;;;;;;;5.03;2.45;;;;;;;;;;4957837;28;20084;-81
2023/01/06 12:25:56;;;;;;;1.88;1.27;;;;;;;;;;5026324;28;20062;-84
2023/01/06 12:28:41;;;;;;;3.85;1.38;;;;;;;;;;5021319;28;20051;-84
2023/01/06 12:31:15;;;;;;;2.00;1.30;;;;;;;;;;5019808;28;20029;-81
2023/01/06 12:33:54;;;;;;;4.30;1.58;;;;;;;;;;5014971;28;20033;-82
2023/01/06 12:36:42;;;;;;;3.90;1.38;;;;;;;;;;5023148;28;20056;-79
2023/01/06 12:39:16;;;;;;;2.08;1.35;;;;;;;;;;5020584;28;20095;-80
2023/01/06 12:42:04;;;;;;;3.47;1.30;;;;;;;;;;5002697;28;20099;-77
2023/01/06 12:45:07;;;;;;;2.60;1.67;;;;;;;;;;5024628;28;20142;-79
2023/01/06 12:47:43;;;;;;;1.95;1.58;;;;;;;;;;5015885;28;20037;-77
2023/01/06 12:50:20;;;;;;;4.60;1.45;;;;;;;;;;5016136;28;20947;-79
2023/01/06 12:52:58;;;;;;;2.13;1.33;;;;;;;;;;5021545;28;20059;-78
2023/01/06 12:55:38;;;;;;;1.75;1.40;;;;;;;;;;5021233;28;20030;-77
2023/01/06 12:58:08;;;;;;;4.18;1.67;;;;;;;;;;5038785;28;20068;-77
2023/01/06 13:01:03;;;;;;;1.95;1.15;;;;;;;;;;5024732;28;20025;-80
2023/01/06 13:03:46;;;;;;;3.58;1.13;;;;;;;;;;5002214;28;20040;-77
2023/01/06 13:06:40;;;;;;;2.75;1.80;;;;;;;;;;5021727;28;20033;-78
2023/01/06 13:09:39;;;;;;;4.38;1.55;;;;;;;;;;5022846;28;20124;-78
2023/01/06 13:12:10;;;;;;;1.27;1.10;;;;;;;;;;5019692;28;20049;-76
2023/01/06 13:14:47;;;;;;;2.35;1.30;;;;;;;;;;5022111;28;20091;-79
2023/01/06 13:17:18;;;;;;;4.95;1.50;;;;;;;;;;5020930;28;20025;-80
2023/01/06 13:19:51;;;;;;;4.55;1.50;;;;;;;;;;5025338;28;20274;-80
2023/01/06 13:22:46;;;;;;;3.90;2.00;;;;;;;;;;5019296;28;20040;-80
2023/01/06 13:25:27;;;;;;;2.97;1.70;;;;;;;;;;5035138;28;20029;-80
2023/01/06 13:28:14;;;;;;;5.97;1.83;;;;;;;;;;5019034;28;20025;-79
2023/01/06 13:31:19;;;;;;;1.77;1.60;;;;;;;;;;5023177;28;20030;-80
2023/01/06 13:33:57;;;;;;;3.35;1.70;;;;;;;;;;5024485;28;20033;-81
2023/01/06 13:36:29;;;;;;;2.42;1.42;;;;;;;;;;5016624;28;20071;-81
2023/01/06 13:39:02;;;;;;;2.20;1.45;;;;;;;;;;5026921;28;20041;-81
2023/01/06 13:41:38;;;;;;;1.40;1.30;;;;;;;;;;5020005;28;20045;-80
2023/01/06 13:44:13;;;;;;;2.28;1.17;;;;;;;;;;5035788;28;20056;-81
2023/01/06 13:46:40;;;;;;;1.60;1.50;;;;;;;;;;5022597;28;20135;-81
2023/01/06 13:49:07;;;;;;;3.85;1.55;;;;;;;;;;5024282;28;20068;-80
2023/01/06 13:51:39;;;;;;;3.47;1.25;;;;;;;;;;5018354;28;20033;-78
2023/01/06 13:54:05;;;;;;;2.08;1.42;;;;;;;;;;5028098;28;20403;-78
2023/01/06 13:56:33;;;;;;;4.95;2.00;;;;;;;;;;5025544;28;20037;-80
2023/01/06 13:59:23;;;;;;;4.50;1.52;;;;;;;;;;5029208;28;20036;-79
2023/01/06 14:01:50;;;;;;;3.85;1.30;;;;;;;;;;5025221;28;20029;-80
2023/01/06 14:04:43;;;;;;;1.85;1.60;;;;;;;;;;5027045;28;20033;-81
2023/01/06 14:07:10;;;;;;;1.77;1.20;;;;;;;;;;5032246;28;20025;-82
2023/01/06 14:09:45;;;;;;;4.20;1.58;;;;;;;;;;5009229;28;20115;-79
2023/01/06 14:12:46;;;;;;;3.72;1.80;;;;;;;;;;5023251;28;20115;-83
2023/01/06 14:15:27;;;;;;;2.65;1.90;;;;;;;;;;5028286;28;20033;-84
2023/01/06 14:17:53;;;;;;;1.75;1.05;;;;;;;;;;5021948;28;20124;-79
2023/01/06 14:20:30;;;;;;;3.67;1.40;;;;;;;;;;5021551;28;20070;-79
2023/01/06 14:23:01;;;;;;;4.45;1.63;;;;;;;;;;5022851;28;20060;-80
2023/01/06 14:25:28;;;;;;;2.63;1.27;;;;;;;;;;5025330;28;20107;-82
2023/01/06 14:27:57;;;;;;;2.00;1.52;;;;;;;;;;5010696;28;20505;-82
2023/01/06 14:30:24;;;;;;;5.78;2.00;;;;;;;;;;5026674;28;20124;-83
2023/01/06 14:33:09;;;;;;;2.90;1.25;;;;;;;;;;5026218;28;20029;-86
2023/01/06 14:35:42;;;;;;;2.83;1.20;;;;;;;;;;5022956;28;20055;-85
2023/01/06 14:38:43;;;;;;;2.92;1.05;;;;;;;;;;5030782;28;20037;-84
2023/01/06 14:41:28;;;;;;;3.13;1.50;;;;;;;;;;4989299;28;20042;-82
2023/01/06 14:44:02;;;;;;;1.98;1.00;;;;;;;;;;5017127;28;20462;-84
2023/01/06 14:46:32;;;;;;;3.28;1.08;;;;;;;;;;5027084;28;20402;-82
2023/01/06 14:49:02;;;;;;;3.40;1.50;;;;;;;;;;5025423;28;20179;-80
2023/01/06 14:51:29;;;;;;;1.52;1.40;;;;;;;;;;5025459;28;20059;-83
2023/01/06 14:54:04;;;;;;;2.00;1.50;;;;;;;;;;5012123;28;20029;-76
2023/01/06 14:56:33;;;;;;;3.50;1.30;;;;;;;;;;5025401;28;20064;-78
2023/01/06 14:59:25;;;;;;;6.38;1.50;;;;;;;;;;5025110;28;20025;-81
2023/01/06 15:01:58;;;;;;;5.47;1.48;;;;;;;;;;5024134;28;21096;-83
2023/01/06 15:04:29;;;;;;;2.35;0.80;;;;;;;;;;5024836;28;20034;-86
2023/01/06 15:07:04;;;;;;;1.85;1.35;;;;;;;;;;5027060;28;20060;-82
2023/01/06 15:09:31;;;;;;;1.75;1.20;;;;;;;;;;5017668;28;20625;-79
2023/01/06 15:11:56;;;;;;;2.05;1.30;;;;;;;;;;5027736;28;20114;-82